Time;durP1;ratioP1;P1;durP2;ratioP2;P2;SDS_P1;SDS_P2;PMS_P1;PMS_P2;Temp;Humidity;BMP_temperature;BMP_pressure;BME280_temperature;BME280_humidity;BME280_pressure;Samples;Min_cycle;Max_cycle;Signal;HPM_P1;HPM_P2
2021/11/21 00:01:27;;;;;;;12.82;11.73;;;;;;;7.64;82.22;98675.41;5018893;28;102510;-63
2021/11/21 00:03:55;;;;;;;13.53;12.33;;;;;;;7.54;82.23;98669.88;5023465;28;103834;-65
2021/11/21 00:06:25;;;;;;;11.32;10.38;;;;;;;7.82;81.99;98660.31;4999311;28;103475;-65
2021/11/21 00:08:53;;;;;;;12.43;11.40;;;;;;;7.76;81.29;98658.03;5022843;28;103106;-64
2021/11/21 00:11:22;;;;;;;10.65;9.75;;;;;;;7.87;81.89;98668.75;5001580;28;102801;-63
2021/11/21 00:13:51;;;;;;;13.43;12.23;;;;;;;7.82;81.81;98655.03;5003290;28;102793;-65
2021/11/21 00:16:20;;;;;;;12.85;11.75;;;;;;;7.95;81.35;98658.59;5019873;28;103470;-63
2021/11/21 00:18:48;;;;;;;12.38;11.27;;;;;;;7.95;81.28;98661.22;5017561;28;103503;-63
2021/11/21 00:21:17;;;;;;;13.50;12.32;;;;;;;7.71;80.73;98660.13;5019812;28;103084;-63
2021/11/21 00:23:47;;;;;;;12.40;11.35;;;;;;;7.75;81.36;98665.09;5006174;27;102898;-63
2021/11/21 00:26:15;;;;;;;12.80;11.68;;;;;;;7.71;81.88;98657.50;5021174;27;104162;-64
2021/11/21 00:28:43;;;;;;;12.45;11.35;;;;;;;7.72;82.03;98651.31;5022309;28;103165;-65
2021/11/21 00:31:11;;;;;;;13.55;12.35;;;;;;;7.72;81.36;98653.94;5021720;28;102770;-65
2021/11/21 00:33:39;;;;;;;13.37;12.17;;;;;;;7.71;82.47;98649.59;5019967;28;103948;-65
2021/11/21 00:36:07;;;;;;;13.23;12.03;;;;;;;7.66;82.76;98652.53;5022899;28;103108;-64
2021/11/21 00:38:38;;;;;;;13.50;12.27;;;;;;;7.57;82.14;98645.19;5021567;28;103889;-65
2021/11/21 00:41:08;;;;;;;13.65;12.45;;;;;;;7.75;82.18;98644.03;5001623;28;102748;-65
2021/11/21 00:43:36;;;;;;;14.05;12.85;;;;;;;7.21;84.76;98627.22;5021843;28;102940;-65
2021/11/21 00:46:04;;;;;;;14.33;13.13;;;;;;;7.24;84.43;98631.47;5004287;28;103221;-65
2021/11/21 00:48:35;;;;;;;13.73;12.55;;;;;;;7.51;83.31;98617.50;5004482;28;103036;-64
2021/11/21 00:51:04;;;;;;;13.95;12.75;;;;;;;7.45;83.57;98622.28;5022325;27;102723;-65
2021/11/21 00:53:32;;;;;;;12.47;11.37;;;;;;;7.57;83.13;98609.22;5021539;28;102799;-62
2021/11/21 00:56:04;;;;;;;13.68;12.48;;;;;;;7.52;83.09;98613.91;5000119;28;103999;-64
2021/11/21 00:58:35;;;;;;;15.90;14.40;;;;;;;6.83;85.45;98611.09;5020258;28;103335;-65
2021/11/21 01:01:05;;;;;;;13.87;12.67;;;;;;;6.89;87.23;98615.16;5021747;28;102626;-63
2021/11/21 01:03:34;;;;;;;14.57;13.38;;;;;;;7.14;84.39;98612.75;5004169;28;102697;-63
2021/11/21 01:06:02;;;;;;;13.23;12.13;;;;;;;7.19;84.78;98618.56;5002327;28;103171;-63
2021/11/21 01:08:31;;;;;;;14.23;12.93;;;;;;;7.41;83.65;98618.97;5019955;28;103212;-64
2021/11/21 01:11:01;;;;;;;11.83;10.80;;;;;;;7.58;82.62;98621.41;5002033;28;102922;-65
2021/11/21 01:13:30;;;;;;;13.77;12.57;;;;;;;7.28;82.65;98609.31;5019510;28;102589;-64
2021/11/21 01:15:59;;;;;;;15.05;13.75;;;;;;;7.15;84.06;98611.84;5018904;28;104406;-64
2021/11/21 01:18:28;;;;;;;13.27;12.13;;;;;;;7.29;83.97;98614.47;5022552;28;103279;-65
2021/11/21 01:20:56;;;;;;;12.40;11.40;;;;;;;7.45;83.61;98606.50;5018167;28;102780;-64
2021/11/21 01:23:24;;;;;;;12.98;11.88;;;;;;;7.45;83.56;98609.97;5000680;28;102873;-63
2021/11/21 01:25:53;;;;;;;12.20;11.18;;;;;;;7.46;83.56;98613.47;5017473;28;104463;-63
2021/11/21 01:28:21;;;;;;;16.55;15.05;;;;;;;6.93;83.78;98621.94;5018937;28;103238;-63
2021/11/21 01:30:49;;;;;;;14.55;13.25;;;;;;;7.30;84.50;98617.94;5021595;28;102647;-64
2021/11/21 01:33:18;;;;;;;16.38;14.88;;;;;;;6.75;84.41;98623.84;5022082;28;103179;-65
2021/11/21 01:35:46;;;;;;;13.90;12.70;;;;;;;7.21;84.99;98618.50;5021019;28;103282;-64
2021/11/21 01:38:15;;;;;;;13.40;12.30;;;;;;;7.21;84.87;98606.22;4998408;28;103217;-64
2021/11/21 01:40:43;;;;;;;14.52;13.23;;;;;;;7.19;83.97;98602.81;5022478;28;102641;-64
2021/11/21 01:43:12;;;;;;;13.90;12.70;;;;;;;7.32;83.57;98601.16;5021600;28;102728;-64
2021/11/21 01:45:40;;;;;;;14.23;12.98;;;;;;;7.28;83.73;98590.91;5000445;28;104546;-64
2021/11/21 01:48:09;;;;;;;13.03;11.93;;;;;;;7.40;84.13;98604.16;5015932;28;103409;-64
2021/11/21 01:50:41;;;;;;;14.07;12.77;;;;;;;7.28;84.05;98601.41;5021365;27;103812;-64
2021/11/21 01:53:10;;;;;;;14.10;12.90;;;;;;;7.11;85.39;98591.91;5020981;28;102851;-63
2021/11/21 01:55:40;;;;;;;15.57;14.18;;;;;;;7.11;84.84;98591.91;5020613;28;103174;-64
2021/11/21 01:58:08;;;;;;;12.38;11.35;;;;;;;7.31;84.57;98585.47;5020077;27;103268;-64
2021/11/21 02:00:39;;;;;;;11.65;10.65;;;;;;;7.53;83.62;98586.69;5019729;27;102549;-65
2021/11/21 02:03:08;;;;;;;11.57;10.57;;;;;;;7.65;83.03;98579.81;5010571;28;103018;-63
2021/11/21 02:05:36;;;;;;;13.13;12.02;;;;;;;7.59;82.96;98585.47;5014048;28;103249;-63
2021/11/21 02:08:06;;;;;;;14.10;12.90;;;;;;;7.32;83.29;98577.50;5017883;28;102996;-63
2021/11/21 02:10:35;;;;;;;13.27;12.18;;;;;;;7.39;84.20;98573.53;4999725;28;102790;-63
2021/11/21 02:13:05;;;;;;;13.98;12.77;;;;;;;7.40;83.46;98580.50;5017660;28;102703;-63
2021/11/21 02:15:35;;;;;;;12.18;11.18;;;;;;;7.50;83.78;98568.47;5002695;28;103472;-63
2021/11/21 02:18:05;;;;;;;15.95;14.45;;;;;;;6.96;83.49;98569.22;5017159;28;102964;-64
2021/11/21 02:20:47;;;;;;;13.50;12.40;;;;;;;7.17;84.28;98562.66;5018654;28;102718;-64
2021/11/21 02:23:15;;;;;;;11.77;10.77;;;;;;;7.11;84.71;98563.03;4999916;28;104217;-64
2021/11/21 02:25:43;;;;;;;13.18;12.07;;;;;;;6.89;84.40;98560.00;5021107;28;103353;-64
2021/11/21 02:28:11;;;;;;;13.30;12.20;;;;;;;6.71;86.19;98543.53;5001564;28;103213;-64
2021/11/21 02:30:40;;;;;;;13.13;11.93;;;;;;;6.65;86.82;98550.94;4999394;28;102734;-64
2021/11/21 02:33:11;;;;;;;12.00;10.93;;;;;;;7.10;85.29;98553.47;5020540;28;103633;-64
2021/11/21 02:35:41;;;;;;;10.23;9.32;;;;;;;7.25;84.26;98549.91;5017803;28;103230;-64
2021/11/21 02:38:13;;;;;;;12.80;11.60;;;;;;;6.85;84.10;98543.56;4999647;28;103250;-64
2021/11/21 02:40:42;;;;;;;13.43;12.23;;;;;;;6.78;85.45;98549.28;5001273;28;102712;-64
2021/11/21 02:43:10;;;;;;;12.80;11.70;;;;;;;6.83;84.37;98548.06;5020699;28;102846;-64
2021/11/21 02:45:38;;;;;;;11.80;10.80;;;;;;;7.11;84.13;98542.00;5018100;28;103308;-64
2021/11/21 02:48:06;;;;;;;12.35;11.25;;;;;;;7.01;83.70;98538.25;5018068;28;103267;-64
2021/11/21 02:50:34;;;;;;;11.13;10.13;;;;;;;6.99;84.63;98529.59;5019206;28;103766;-64
2021/11/21 02:53:03;;;;;;;12.55;11.45;;;;;;;6.78;84.02;98523.03;5019029;27;103036;-64
2021/11/21 02:55:34;;;;;;;12.70;11.60;;;;;;;6.46;86.20;98522.28;4998877;28;103259;-64
2021/11/21 02:58:05;;;;;;;11.95;10.88;;;;;;;6.04;87.35;98523.00;4999903;28;103206;-64
2021/11/21 03:00:35;;;;;;;10.50;9.63;;;;;;;6.69;86.14;98518.31;5018119;28;102675;-64
2021/11/21 03:03:03;;;;;;;10.52;9.63;;;;;;;6.70;85.91;98506.88;4994582;28;102911;-64
2021/11/21 03:05:33;;;;;;;9.27;8.48;;;;;;;7.07;84.18;98503.75;5017855;28;103593;-64
2021/11/21 03:08:02;;;;;;;9.38;8.68;;;;;;;7.07;82.96;98498.50;5020453;27;103213;-65
2021/11/21 03:10:32;;;;;;;6.60;6.00;;;;;;;6.62;84.64;98494.22;5020463;27;103092;-64
2021/11/21 03:13:02;;;;;;;9.17;6.57;;;;;;;6.40;86.04;98492.00;5017425;28;102663;-64
2021/11/21 03:15:31;;;;;;;7.73;6.93;;;;;;;6.05;86.73;98495.84;5019472;28;103272;-64
2021/11/21 03:18:02;;;;;;;7.03;6.30;;;;;;;6.01;87.85;98498.72;5020235;28;103284;-64
2021/11/21 03:20:34;;;;;;;9.07;7.63;;;;;;;5.80;88.28;98490.25;5016656;28;102560;-64
2021/11/21 03:23:04;;;;;;;9.33;8.40;;;;;;;5.77;89.05;98482.56;5018453;28;103926;-65
2021/11/21 03:25:34;;;;;;;10.20;9.03;;;;;;;5.70;89.13;98486.44;5017896;28;104035;-64
2021/11/21 03:28:03;;;;;;;10.33;9.23;;;;;;;5.64;89.38;98481.56;5000363;28;103268;-64
2021/11/21 03:30:31;;;;;;;8.60;7.70;;;;;;;5.67;90.25;98473.53;5012926;28;102808;-64
2021/11/21 03:32:59;;;;;;;9.27;7.97;;;;;;;5.61;89.72;98473.88;5019396;28;102600;-64
2021/11/21 03:35:27;;;;;;;9.73;8.17;;;;;;;5.42;90.68;98467.97;5021297;27;104075;-64
2021/11/21 03:37:55;;;;;;;10.67;9.00;;;;;;;5.34;92.68;98475.38;5019280;27;103397;-64
2021/11/21 03:40:23;;;;;;;10.83;9.60;;;;;;;5.33;92.62;98473.72;5020875;28;103060;-64
2021/11/21 03:42:53;;;;;;;9.20;7.80;;;;;;;5.43;92.79;98475.75;5001744;28;102651;-63
2021/11/21 03:45:21;;;;;;;9.27;8.27;;;;;;;5.57;91.94;98477.59;5018737;28;104194;-63
2021/11/21 03:47:50;;;;;;;9.30;8.30;;;;;;;5.54;90.79;98477.75;5002703;28;103164;-63
2021/11/21 03:50:19;;;;;;;9.90;8.77;;;;;;;5.47;91.85;98465.94;5015882;28;102680;-63
2021/11/21 03:52:47;;;;;;;9.47;8.03;;;;;;;5.47;92.36;98469.41;5020602;28;102685;-63
2021/11/21 03:55:18;;;;;;;9.60;8.00;;;;;;;5.49;91.58;98469.31;5021326;28;103764;-64
2021/11/21 03:57:47;;;;;;;8.80;7.90;;;;;;;5.47;91.94;98461.56;5020560;28;103190;-64
2021/11/21 04:00:19;;;;;;;8.70;7.57;;;;;;;5.47;91.55;98458.09;5021034;28;102685;-64
2021/11/21 04:02:47;;;;;;;9.17;8.23;;;;;;;5.44;92.03;98450.38;5020475;28;103751;-64
2021/11/21 04:05:17;;;;;;;8.83;7.80;;;;;;;5.39;91.63;98441.94;5017775;28;104254;-64
2021/11/21 04:07:45;;;;;;;7.63;6.83;;;;;;;5.47;92.17;98450.22;5019576;28;103197;-64
2021/11/21 04:10:14;;;;;;;9.57;8.13;;;;;;;5.46;92.33;98448.53;5018430;28;102630;-64
2021/11/21 04:12:42;;;;;;;9.00;8.07;;;;;;;5.32;92.82;98451.06;5018316;28;102579;-64
2021/11/21 04:15:11;;;;;;;11.10;9.27;;;;;;;5.26;91.71;98449.63;5019271;28;104056;-64
2021/11/21 04:17:41;;;;;;;10.73;9.00;;;;;;;5.34;93.24;98452.66;5020854;27;103205;-64
2021/11/21 04:20:11;;;;;;;10.43;9.20;;;;;;;5.32;92.52;98440.56;5020883;27;103087;-63
2021/11/21 04:22:41;;;;;;;9.43;7.87;;;;;;;5.44;92.90;98434.66;5016152;28;102739;-63
2021/11/21 04:25:10;;;;;;;9.73;8.33;;;;;;;5.45;92.21;98425.84;5020461;28;103278;-63
2021/11/21 04:27:38;;;;;;;7.20;5.87;;;;;;;5.55;92.32;98432.28;5001961;28;103192;-63
2021/11/21 04:30:09;;;;;;;8.20;6.50;;;;;;;5.58;91.81;98419.03;5017186;28;102806;-63
2021/11/21 04:32:38;;;;;;;9.67;7.57;;;;;;;5.59;91.39;98423.31;5018400;28;102574;-63
2021/11/21 04:35:13;;;;;;;6.80;5.50;;;;;;;5.59;91.61;98407.59;5011638;27;103233;-63
2021/11/21 04:37:41;;;;;;;10.83;8.47;;;;;;;5.50;91.90;98419.44;5018856;28;103297;-63
2021/11/21 04:40:11;;;;;;;9.37;7.90;;;;;;;5.54;91.45;98407.00;5016193;28;102694;-63
2021/11/21 04:42:39;;;;;;;9.47;8.47;;;;;;;5.35;91.89;98399.34;5002000;28;102814;-63
2021/11/21 04:45:08;;;;;;;8.30;7.40;;;;;;;5.46;91.93;98399.59;5018777;28;104191;-63
2021/11/21 04:47:37;;;;;;;9.27;7.77;;;;;;;5.51;91.62;98404.56;5019049;27;103170;-63
2021/11/21 04:50:07;;;;;;;9.00;7.30;;;;;;;5.50;91.78;98395.84;5021631;28;102591;-63
2021/11/21 04:52:36;;;;;;;10.20;8.27;;;;;;;5.39;90.92;98390.38;5020930;28;102798;-63
2021/11/21 04:55:08;;;;;;;11.27;8.73;;;;;;;5.08;93.45;98387.78;5017557;27;104268;-63
2021/11/21 04:57:39;;;;;;;10.60;9.60;;;;;;;5.78;91.54;98389.91;5021595;28;103193;-63
2021/11/21 05:00:14;;;;;;;10.85;9.75;;;;;;;6.18;89.25;98389.25;5017763;28;103823;-63
2021/11/21 05:02:43;;;;;;;13.07;11.80;;;;;;;6.05;87.54;98385.69;5020233;27;103098;-64
2021/11/21 05:05:14;;;;;;;11.02;10.02;;;;;;;6.24;87.72;98386.28;5020771;28;103201;-64
2021/11/21 05:07:44;;;;;;;12.43;11.23;;;;;;;6.21;87.71;98385.63;5018783;28;102884;-64
2021/11/21 05:10:13;;;;;;;11.50;10.40;;;;;;;6.50;87.12;98376.00;5019511;28;102566;-64
2021/11/21 05:12:42;;;;;;;11.80;10.70;;;;;;;6.51;86.04;98367.19;5002688;28;103119;-64
2021/11/21 05:15:12;;;;;;;12.90;11.70;;;;;;;6.29;86.38;98363.22;5019540;28;103249;-64
2021/11/21 05:17:40;;;;;;;10.32;9.43;;;;;;;6.61;85.78;98363.06;5019943;28;103214;-64
2021/11/21 05:20:09;;;;;;;11.40;10.40;;;;;;;6.57;84.75;98372.91;5004499;28;102697;-63
2021/11/21 05:22:37;;;;;;;9.27;8.48;;;;;;;6.67;84.59;98378.44;5020441;28;104999;-63
2021/11/21 05:25:08;;;;;;;9.20;8.40;;;;;;;6.78;83.48;98389.13;5020123;28;103280;-64
2021/11/21 05:27:36;;;;;;;10.80;9.80;;;;;;;6.89;83.23;98384.91;5002119;28;103221;-64
2021/11/21 05:30:05;;;;;;;9.20;8.30;;;;;;;7.00;82.91;98386.84;5023859;27;102963;-64
2021/11/21 05:32:33;;;;;;;8.52;7.72;;;;;;;7.09;82.77;98390.69;5018982;28;103991;-64
2021/11/21 05:35:01;;;;;;;10.20;9.30;;;;;;;7.14;81.82;98384.19;5022019;28;103435;-63
2021/11/21 05:37:29;;;;;;;9.70;8.80;;;;;;;7.18;81.37;98375.19;5001917;28;103208;-63
2021/11/21 05:39:57;;;;;;;10.35;9.35;;;;;;;7.15;81.67;98380.63;5016210;28;102932;-63
2021/11/21 05:42:28;;;;;;;8.27;7.57;;;;;;;7.22;81.83;98371.41;5000217;28;102859;-63
2021/11/21 05:44:56;;;;;;;8.88;8.07;;;;;;;7.28;81.62;98376.28;5017370;28;103272;-63
2021/11/21 05:47:24;;;;;;;9.00;8.20;;;;;;;7.10;81.68;98381.88;5002452;28;103204;-63
2021/11/21 05:49:52;;;;;;;9.80;8.90;;;;;;;6.82;82.47;98378.31;5021896;28;102528;-63
2021/11/21 05:52:21;;;;;;;9.63;8.73;;;;;;;6.73;82.90;98378.06;5003043;28;102735;-63
2021/11/21 05:54:50;;;;;;;9.82;8.93;;;;;;;6.17;87.32;98378.88;5018487;28;103981;-63
2021/11/21 05:57:18;;;;;;;9.73;8.75;;;;;;;6.07;87.10;98365.44;4999304;28;104337;-63
2021/11/21 05:59:48;;;;;;;9.35;8.45;;;;;;;6.43;85.88;98358.94;5022027;27;102963;-63
2021/11/21 06:02:16;;;;;;;8.93;8.13;;;;;;;6.72;84.76;98363.25;5017855;28;102682;-63
2021/11/21 06:04:44;;;;;;;8.38;7.63;;;;;;;6.86;83.99;98357.97;5020876;28;103236;-63
2021/11/21 06:07:15;;;;;;;6.82;6.22;;;;;;;7.04;83.89;98367.34;5019151;28;103490;-63
2021/11/21 06:09:43;;;;;;;8.77;7.88;;;;;;;7.05;83.04;98357.66;5018656;28;102654;-63
2021/11/21 06:12:12;;;;;;;9.30;8.43;;;;;;;7.10;83.76;98358.22;5019179;27;103857;-63
2021/11/21 06:14:40;;;;;;;8.93;8.13;;;;;;;7.17;83.36;98360.34;5019449;27;103937;-63
2021/11/21 06:17:09;;;;;;;11.32;10.23;;;;;;;6.95;83.32;98353.00;5015948;28;103234;-63
2021/11/21 06:19:38;;;;;;;9.32;8.43;;;;;;;7.13;83.74;98350.97;4985233;28;102703;-62
2021/11/21 06:22:06;;;;;;;9.75;8.85;;;;;;;7.22;83.40;98354.78;5010185;28;104508;-63
2021/11/21 06:24:34;;;;;;;10.00;9.10;;;;;;;7.05;83.09;98362.91;5004051;28;103355;-64
2021/11/21 06:27:02;;;;;;;9.40;8.60;;;;;;;6.79;84.29;98356.69;4984250;28;103965;-65
2021/11/21 06:29:30;;;;;;;10.87;9.97;;;;;;;6.47;83.99;98357.81;5003094;28;103126;-64
2021/11/21 06:31:58;;;;;;;10.25;9.45;;;;;;;6.56;84.41;98360.72;4984450;28;102982;-65
2021/11/21 06:34:29;;;;;;;9.93;9.02;;;;;;;6.50;83.19;98365.50;5006075;27;103383;-63
2021/11/21 06:36:57;;;;;;;11.02;10.02;;;;;;;6.41;84.01;98367.75;4991876;28;103603;-63
2021/11/21 06:39:25;;;;;;;9.85;9.05;;;;;;;6.65;82.20;98377.69;5006187;27;102718;-63
2021/11/21 06:41:56;;;;;;;8.15;7.55;;;;;;;6.94;82.45;98371.47;5001110;28;103896;-65
2021/11/21 06:44:24;;;;;;;9.40;8.63;;;;;;;7.00;81.74;98371.09;4988609;28;103252;-63
2021/11/21 06:46:52;;;;;;;9.00;8.30;;;;;;;6.92;82.12;98374.19;5002136;28;103429;-63
2021/11/21 06:49:20;;;;;;;10.35;9.48;;;;;;;6.80;81.91;98374.97;4981937;28;102931;-63
2021/11/21 06:51:52;;;;;;;9.70;8.90;;;;;;;6.87;81.70;98372.81;4985036;28;103380;-64
2021/11/21 06:54:20;;;;;;;10.33;9.53;;;;;;;6.33;82.09;98377.88;5008006;28;104109;-64
2021/11/21 06:56:49;;;;;;;10.90;9.95;;;;;;;6.32;84.14;98373.53;5001169;28;103234;-63
2021/11/21 06:59:17;;;;;;;10.38;9.50;;;;;;;6.29;84.09;98372.88;4987206;28;103042;-64
2021/11/21 07:01:45;;;;;;;9.20;8.40;;;;;;;6.76;82.96;98380.50;5004359;28;102964;-63
2021/11/21 07:04:13;;;;;;;9.88;9.00;;;;;;;6.55;83.22;98381.81;5006612;28;103287;-63
2021/11/21 07:06:43;;;;;;;10.27;9.40;;;;;;;6.65;82.75;98380.31;4980633;28;103180;-63
2021/11/21 07:09:14;;;;;;;9.70;8.90;;;;;;;6.74;82.59;98396.34;4993310;28;103012;-64
2021/11/21 07:11:43;;;;;;;10.50;9.57;;;;;;;6.51;82.71;98385.56;5004715;28;103483;-64
2021/11/21 07:14:14;;;;;;;10.60;9.60;;;;;;;6.29;83.81;98394.72;4983226;28;104137;-65
2021/11/21 07:16:44;;;;;;;10.90;10.00;;;;;;;6.12;85.31;98391.44;5001235;28;103204;-65
2021/11/21 07:19:12;;;;;;;9.63;8.88;;;;;;;6.39;84.59;98390.63;5000568;27;103091;-64
2021/11/21 07:21:40;;;;;;;10.40;9.40;;;;;;;6.34;84.15;98384.78;5013617;28;103898;-65
2021/11/21 07:24:09;;;;;;;10.57;9.63;;;;;;;6.33;84.32;98387.50;5013110;28;103308;-65
2021/11/21 07:26:39;;;;;;;11.20;10.20;;;;;;;6.18;84.08;98394.50;4996299;28;103065;-65
2021/11/21 07:29:08;;;;;;;10.47;9.57;;;;;;;6.53;84.10;98394.19;5001073;28;102947;-64
2021/11/21 07:31:38;;;;;;;10.88;9.88;;;;;;;6.28;85.15;98397.44;5001102;28;103120;-65
2021/11/21 07:34:06;;;;;;;9.07;8.27;;;;;;;6.70;84.10;98400.09;4999097;28;104126;-63
2021/11/21 07:36:34;;;;;;;10.02;9.15;;;;;;;6.79;83.15;98396.88;4999296;28;103206;-63
2021/11/21 07:39:03;;;;;;;10.70;9.80;;;;;;;6.66;82.59;98389.88;5014714;28;103057;-63
2021/11/21 07:41:31;;;;;;;9.23;8.43;;;;;;;6.81;83.10;98394.19;5018030;28;103828;-63
2021/11/21 07:44:01;;;;;;;11.30;10.30;;;;;;;6.39;83.40;98395.03;4995659;28;103054;-63
2021/11/21 07:46:29;;;;;;;13.40;12.10;;;;;;;5.66;86.79;98401.06;4995263;27;103230;-64
2021/11/21 07:48:57;;;;;;;23.75;18.02;;;;;;;4.83;92.70;98398.72;5012084;27;103216;-64
2021/11/21 07:51:25;;;;;;;19.83;17.70;;;;;;;5.10;92.74;98401.63;4994041;28;103300;-64
2021/11/21 07:53:53;;;;;;;24.92;20.13;;;;;;;4.64;94.74;98400.66;5013551;27;104053;-64
2021/11/21 07:56:22;;;;;;;22.42;20.08;;;;;;;4.96;94.28;98402.41;5013274;27;103239;-64
2021/11/21 07:58:50;;;;;;;23.58;20.40;;;;;;;4.82;94.47;98404.06;4995109;28;103744;-64
2021/11/21 08:01:19;;;;;;;20.73;18.63;;;;;;;4.84;96.96;98403.03;5007245;28;102857;-64
2021/11/21 08:03:48;;;;;;;23.75;20.73;;;;;;;4.69;96.04;98402.09;5014795;28;104113;-64
2021/11/21 08:06:16;;;;;;;22.93;20.43;;;;;;;5.12;94.84;98403.25;5015357;28;103412;-65
2021/11/21 08:08:44;;;;;;;22.80;20.27;;;;;;;5.11;92.55;98411.16;5011753;28;102971;-67
2021/11/21 08:11:14;;;;;;;23.70;20.83;;;;;;;4.84;95.35;98413.50;4989244;28;103069;-68
2021/11/21 08:13:45;;;;;;;19.47;17.47;;;;;;;5.40;93.29;98406.94;5013553;27;103774;-68
2021/11/21 08:16:15;;;;;;;20.48;18.27;;;;;;;5.61;90.54;98401.34;4989731;28;103164;-68
2021/11/21 08:18:45;;;;;;;18.15;16.45;;;;;;;5.99;89.74;98406.19;5012107;28;102688;-65
2021/11/21 08:21:13;;;;;;;21.27;18.98;;;;;;;5.64;90.01;98411.63;5008913;28;103229;-62
2021/11/21 08:23:43;;;;;;;21.50;19.33;;;;;;;5.60;90.61;98401.41;5010620;27;103229;-65
2021/11/21 08:26:11;;;;;;;20.87;18.63;;;;;;;5.52;89.76;98407.09;4998510;28;103234;-62
2021/11/21 08:28:39;;;;;;;18.45;16.52;;;;;;;5.78;90.36;98403.81;5019758;28;103155;-64
2021/11/21 08:31:08;;;;;;;18.27;16.38;;;;;;;6.06;88.06;98403.13;4994858;28;104178;-68
2021/11/21 08:33:36;;;;;;;18.63;16.73;;;;;;;5.92;89.41;98402.25;5014263;28;104535;-66
2021/11/21 08:36:05;;;;;;;17.88;16.05;;;;;;;6.00;89.79;98403.47;5019515;28;103359;-66
2021/11/21 08:38:36;;;;;;;18.83;16.83;;;;;;;5.96;88.11;98407.19;5019278;28;102748;-66
2021/11/21 08:41:04;;;;;;;16.35;14.75;;;;;;;6.25;87.26;98405.50;5017286;28;103960;-67
2021/11/21 08:43:32;;;;;;;16.00;14.43;;;;;;;6.10;88.47;98404.63;5017056;28;103288;-67
2021/11/21 08:46:00;;;;;;;15.50;14.00;;;;;;;6.16;88.83;98404.25;4990937;28;103332;-67
2021/11/21 08:48:28;;;;;;;16.48;14.77;;;;;;;6.18;87.63;98397.13;5018716;28;102663;-63
2021/11/21 08:50:56;;;;;;;13.77;12.43;;;;;;;6.40;87.24;98397.53;5014143;28;104273;-63
2021/11/21 08:53:26;;;;;;;13.53;12.27;;;;;;;6.18;88.15;98402.38;5001237;28;103246;-67
2021/11/21 08:55:54;;;;;;;13.70;12.38;;;;;;;6.52;86.99;98400.34;5001940;27;102975;-67
2021/11/21 08:58:25;;;;;;;12.30;11.10;;;;;;;6.77;86.31;98400.53;5019918;27;102635;-67
2021/11/21 09:00:54;;;;;;;15.70;14.20;;;;;;;6.36;86.13;98398.69;5021336;28;102594;-68
2021/11/21 09:03:24;;;;;;;15.13;13.55;;;;;;;6.32;86.87;98399.78;5021867;28;104260;-67
2021/11/21 09:05:52;;;;;;;16.02;14.43;;;;;;;6.05;87.29;98401.44;5020127;28;103163;-67
2021/11/21 09:08:20;;;;;;;17.00;15.30;;;;;;;6.29;86.51;98402.59;5021773;28;102819;-67
2021/11/21 09:10:50;;;;;;;15.25;13.75;;;;;;;6.53;86.56;98394.19;5020059;28;102888;-68
2021/11/21 09:13:18;;;;;;;14.85;13.35;;;;;;;6.33;85.41;98405.88;5015751;28;103260;-68
2021/11/21 09:15:49;;;;;;;12.82;11.63;;;;;;;6.64;85.34;98403.09;5019509;28;103590;-66
2021/11/21 09:18:24;;;;;;;12.30;11.13;;;;;;;6.89;84.71;98399.81;5021082;28;102666;-69
2021/11/21 09:20:52;;;;;;;12.27;11.00;;;;;;;6.98;83.57;98405.34;5003863;28;103013;-66
2021/11/21 09:23:22;;;;;;;12.82;11.52;;;;;;;6.73;85.01;98409.56;5003717;28;103335;-68
2021/11/21 09:25:53;;;;;;;12.85;11.50;;;;;;;6.84;84.52;98404.50;5021318;28;102618;-66
2021/11/21 09:28:21;;;;;;;13.30;12.00;;;;;;;6.47;85.25;98403.28;5022094;28;102792;-68
2021/11/21 09:30:49;;;;;;;12.97;11.67;;;;;;;6.81;84.79;98404.69;5004255;28;102829;-67
2021/11/21 09:33:18;;;;;;;14.32;12.82;;;;;;;6.38;84.44;98393.31;5002041;28;103211;-67
2021/11/21 09:35:47;;;;;;;13.90;12.40;;;;;;;6.50;85.20;98394.38;5020991;28;103254;-67
2021/11/21 09:38:15;;;;;;;13.23;11.97;;;;;;;6.47;85.96;98389.31;5019042;28;102866;-67
2021/11/21 09:40:44;;;;;;;14.40;12.90;;;;;;;6.48;85.63;98393.63;5020197;27;102710;-67
2021/11/21 09:43:14;;;;;;;13.10;11.80;;;;;;;6.49;86.30;98396.13;5019776;27;104049;-67
2021/11/21 09:45:42;;;;;;;16.02;14.43;;;;;;;6.28;87.93;98394.81;5019673;28;103066;-67
2021/11/21 09:48:10;;;;;;;16.30;14.60;;;;;;;6.04;90.00;98393.63;5018590;28;102882;-66
2021/11/21 09:50:40;;;;;;;17.13;15.35;;;;;;;5.46;91.14;98390.88;4996990;28;102681;-64
2021/11/21 09:53:09;;;;;;;15.55;13.95;;;;;;;5.56;91.56;98389.41;4999093;27;102954;-64
2021/11/21 09:55:37;;;;;;;15.20;13.70;;;;;;;5.98;90.63;98379.09;5023525;27;103023;-64
2021/11/21 09:58:06;;;;;;;18.98;17.00;;;;;;;5.11;93.98;98388.44;5018456;28;103804;-64
2021/11/21 10:00:36;;;;;;;15.85;14.02;;;;;;;5.67;91.46;98389.69;5000628;28;104160;-64
2021/11/21 10:03:06;;;;;;;14.88;13.40;;;;;;;5.37;95.07;98380.91;4997691;28;103178;-64
2021/11/21 10:05:36;;;;;;;17.13;14.73;;;;;;;4.83;95.72;98383.03;5021370;28;103275;-65
2021/11/21 10:08:06;;;;;;;14.73;13.13;;;;;;;5.21;95.14;98380.94;5023910;27;103146;-64
2021/11/21 10:10:38;;;;;;;15.75;13.85;;;;;;;5.40;91.97;98371.09;5001784;28;103017;-64
2021/11/21 10:13:31;;;;;;;13.60;12.10;;;;;;;5.34;92.81;98365.34;5018407;28;103252;-64
2021/11/21 10:16:21;;;;;;;13.23;11.82;;;;;;;5.60;91.24;98369.97;4999049;28;103434;-64
2021/11/21 10:18:52;;;;;;;15.75;12.45;;;;;;;5.23;92.10;98366.81;4990978;28;102710;-64
2021/11/21 10:21:21;;;;;;;18.00;14.17;;;;;;;4.61;95.88;98364.16;4992872;28;104053;-64
2021/11/21 10:23:50;;;;;;;15.57;12.30;;;;;;;5.06;94.22;98360.81;5007173;28;104161;-64
2021/11/21 10:26:23;;;;;;;14.15;11.82;;;;;;;5.19;95.65;98352.19;5010449;28;103245;-64
2021/11/21 10:28:52;;;;;;;12.98;11.57;;;;;;;5.66;93.03;98346.03;5006036;28;104919;-64
2021/11/21 10:31:23;;;;;;;12.10;10.85;;;;;;;5.72;92.78;98340.44;5009848;28;103765;-64
2021/11/21 10:33:57;;;;;;;14.20;12.60;;;;;;;5.37;93.38;98339.00;4982301;28;103219;-64
2021/11/21 10:36:26;;;;;;;17.08;13.55;;;;;;;5.49;93.45;98340.91;5010662;28;103469;-65
2021/11/21 10:38:56;;;;;;;24.88;17.35;;;;;;;5.91;92.17;98338.47;5012505;28;103056;-65
2021/11/21 10:41:27;;;;;;;13.60;12.02;;;;;;;6.28;90.07;98335.31;5011299;28;102745;-65
2021/11/21 10:43:59;;;;;;;11.98;10.73;;;;;;;6.12;87.86;98338.97;4992980;28;103303;-65
2021/11/21 10:46:40;;;;;;;13.77;11.05;;;;;;;5.52;90.68;98328.50;5008457;28;103478;-65
2021/11/21 10:49:32;;;;;;;11.77;9.85;;;;;;;5.77;90.88;98333.16;5007301;28;102910;-64
2021/11/21 10:52:10;;;;;;;11.70;8.70;;;;;;;5.49;92.70;98339.16;5009623;28;103880;-65
2021/11/21 10:54:43;;;;;;;10.68;9.50;;;;;;;4.92;93.07;98338.03;4993056;28;103261;-65
2021/11/21 10:57:15;;;;;;;10.18;9.07;;;;;;;5.41;91.84;98337.91;4999994;28;103255;-65
2021/11/21 10:59:49;;;;;;;9.40;8.27;;;;;;;5.90;90.09;98333.28;5006123;28;102641;-64
2021/11/21 11:02:26;;;;;;;10.23;9.10;;;;;;;5.48;90.03;98326.13;5019855;28;102586;-64
2021/11/21 11:05:07;;;;;;;10.10;9.00;;;;;;;5.11;92.41;98327.38;5018695;28;104076;-64
2021/11/21 11:07:40;;;;;;;11.05;9.50;;;;;;;5.39;92.22;98324.06;5020066;28;103991;-64
2021/11/21 11:10:12;;;;;;;9.30;8.38;;;;;;;5.96;91.04;98318.03;5019832;27;102709;-64
2021/11/21 11:12:41;;;;;;;9.88;8.88;;;;;;;6.11;89.08;98311.91;5021598;28;102909;-65
2021/11/21 11:15:09;;;;;;;10.15;9.15;;;;;;;5.85;89.17;98309.97;5020043;28;103476;-65
2021/11/21 11:17:39;;;;;;;13.73;10.57;;;;;;;6.23;89.97;98308.50;5009195;27;103196;-64
2021/11/21 11:20:12;;;;;;;11.13;9.90;;;;;;;6.17;88.23;98316.78;4997711;27;102871;-65
2021/11/21 11:22:41;;;;;;;10.57;9.47;;;;;;;5.61;90.44;98309.63;5002933;27;103697;-64
2021/11/21 11:25:12;;;;;;;8.37;6.33;;;;;;;5.70;92.99;98311.69;5013836;28;103375;-65
2021/11/21 11:27:47;;;;;;;9.57;6.70;;;;;;;5.40;93.64;98307.38;5012406;28;103222;-65
2021/11/21 11:30:18;;;;;;;10.90;9.32;;;;;;;5.84;91.19;98308.25;4988940;28;103339;-65
2021/11/21 11:32:48;;;;;;;9.18;8.25;;;;;;;6.06;89.85;98308.72;5006499;28;103156;-65